Hawk Junction, Canada
Current Conditions -  °F | °C
As of 4:00 PM on Tuesday 25 Nov 2014 (Local Time) from CYXZ Reporting Station
Light Snow Light Snow  
Wind Chill: 21°   Ceiling: 1500
Heat Index: 21°   Visibility: 12mi
Dew Point: 14°   Wind: 3mph
Humidity: 74%   Direction: 330°NNW
Pressure: 29.9"   Gusts: NA
Location:  48.09°N, 84.56°W
Report Text: CYXZ 252100Z 33003KT 300V010 12SM -SN OVC015 M06/M10 A2990 RMK SC8 SLP147
Loading
Personal Weather Stations






























Interactive Weather Map New forecast layout! Learn more

10-Day Weather Forecast

Advertisements
Track Severe Weather on mobile